sensor_id;sensor_type;location;lat;lon;timestamp;pressure;altitude;pressure_sealevel;temperature
70417;BMP280;57839;51.332;12.410;2024-03-07T00:00:21;101165.53;;;9.23
70417;BMP280;57839;51.332;12.410;2024-03-07T00:02:47;101164.75;;;9.23
70417;BMP280;57839;51.332;12.410;2024-03-07T00:05:13;101169.78;;;9.24
70417;BMP280;57839;51.332;12.410;2024-03-07T00:07:39;101166.31;;;9.24
70417;BMP280;57839;51.332;12.410;2024-03-07T00:10:05;101171.25;;;9.22
70417;BMP280;57839;51.332;12.410;2024-03-07T00:12:35;101166.19;;;9.20
70417;BMP280;57839;51.332;12.410;2024-03-07T00:15:01;101168.09;;;9.20
70417;BMP280;57839;51.332;12.410;2024-03-07T00:17:26;101169.22;;;9.19
70417;BMP280;57839;51.332;12.410;2024-03-07T00:19:51;101173.00;;;9.18
70417;BMP280;57839;51.332;12.410;2024-03-07T00:22:17;101170.00;;;9.19
70417;BMP280;57839;51.332;12.410;2024-03-07T00:24:42;101175.34;;;9.19
70417;BMP280;57839;51.332;12.410;2024-03-07T00:27:08;101179.13;;;9.18
70417;BMP280;57839;51.332;12.410;2024-03-07T00:29:33;101173.66;;;9.15
70417;BMP280;57839;51.332;12.410;2024-03-07T00:32:01;101176.22;;;9.11
70417;BMP280;57839;51.332;12.410;2024-03-07T00:34:26;101178.44;;;9.09
70417;BMP280;57839;51.332;12.410;2024-03-07T00:36:51;101178.75;;;9.08
70417;BMP280;57839;51.332;12.410;2024-03-07T00:39:17;101166.16;;;9.08
70417;BMP280;57839;51.332;12.410;2024-03-07T00:41:43;101170.72;;;9.08
70417;BMP280;57839;51.332;12.410;2024-03-07T00:44:08;101165.69;;;9.06
70417;BMP280;57839;51.332;12.410;2024-03-07T00:46:35;101159.56;;;9.06
70417;BMP280;57839;51.332;12.410;2024-03-07T00:49:01;101156.09;;;9.05
70417;BMP280;57839;51.332;12.410;2024-03-07T00:51:26;101162.59;;;9.04
70417;BMP280;57839;51.332;12.410;2024-03-07T00:53:52;101162.47;;;9.01
70417;BMP280;57839;51.332;12.410;2024-03-07T00:56:17;101154.75;;;8.99
70417;BMP280;57839;51.332;12.410;2024-03-07T00:58:43;101154.75;;;8.99
70417;BMP280;57839;51.332;12.410;2024-03-07T01:01:08;101156.66;;;8.99
70417;BMP280;57839;51.332;12.410;2024-03-07T01:03:36;101156.66;;;8.99
70417;BMP280;57839;51.332;12.410;2024-03-07T01:06:02;101148.28;;;9.00
70417;BMP280;57839;51.332;12.410;2024-03-07T01:08:28;101148.28;;;9.00
70417;BMP280;57839;51.332;12.410;2024-03-07T01:10:53;101141.84;;;9.01
70417;BMP280;57839;51.332;12.410;2024-03-07T01:13:19;101146.84;;;9.03
70417;BMP280;57839;51.332;12.410;2024-03-07T01:15:47;101143.06;;;9.04
70417;BMP280;57839;51.332;12.410;2024-03-07T01:18:13;101140.72;;;9.02
70417;BMP280;57839;51.332;12.410;2024-03-07T01:20:39;101143.06;;;9.04
70417;BMP280;57839;51.332;12.410;2024-03-07T01:23:04;101141.50;;;9.03
70417;BMP280;57839;51.332;12.410;2024-03-07T01:25:29;101139.28;;;9.05
70417;BMP280;57839;51.332;12.410;2024-03-07T01:28:01;101137.34;;;9.05
70417;BMP280;57839;51.332;12.410;2024-03-07T01:30:29;101140.81;;;9.06
70417;BMP280;57839;51.332;12.410;2024-03-07T01:32:54;101132.00;;;9.05
70417;BMP280;57839;51.332;12.410;2024-03-07T01:35:20;101137.72;;;9.04
70417;BMP280;57839;51.332;12.410;2024-03-07T01:37:45;101131.59;;;9.03
70417;BMP280;57839;51.332;12.410;2024-03-07T01:40:11;101135.34;;;9.02
70417;BMP280;57839;51.332;12.410;2024-03-07T01:42:36;101135.34;;;9.02
70417;BMP280;57839;51.332;12.410;2024-03-07T01:45:02;101132.69;;;9.02
70417;BMP280;57839;51.332;12.410;2024-03-07T01:47:28;101134.59;;;9.02
70417;BMP280;57839;51.332;12.410;2024-03-07T01:49:53;101129.25;;;9.02
70417;BMP280;57839;51.332;12.410;2024-03-07T01:52:19;101126.56;;;9.02
70417;BMP280;57839;51.332;12.410;2024-03-07T01:54:46;101123.91;;;9.02
70417;BMP280;57839;51.332;12.410;2024-03-07T01:57:11;101123.91;;;9.02
70417;BMP280;57839;51.332;12.410;2024-03-07T01:59:38;101124.66;;;9.02
70417;BMP280;57839;51.332;12.410;2024-03-07T02:02:04;101113.63;;;9.04
70417;BMP280;57839;51.332;12.410;2024-03-07T02:04:30;101122.53;;;9.08
70417;BMP280;57839;51.332;12.410;2024-03-07T02:06:55;101119.53;;;9.09
70417;BMP280;57839;51.332;12.410;2024-03-07T02:09:21;101115.78;;;9.10
70417;BMP280;57839;51.332;12.410;2024-03-07T02:11:47;101113.09;;;9.10
70417;BMP280;57839;51.332;12.410;2024-03-07T02:14:12;101115.78;;;9.10
70417;BMP280;57839;51.332;12.410;2024-03-07T02:16:38;101103.47;;;9.09
70417;BMP280;57839;51.332;12.410;2024-03-07T02:19:04;101097.78;;;9.11
70417;BMP280;57839;51.332;12.410;2024-03-07T02:21:30;101101.59;;;9.10
70417;BMP280;57839;51.332;12.410;2024-03-07T02:23:55;101101.59;;;9.10
70417;BMP280;57839;51.332;12.410;2024-03-07T02:26:21;101101.59;;;9.10
70417;BMP280;57839;51.332;12.410;2024-03-07T02:28:46;101101.25;;;9.11
70417;BMP280;57839;51.332;12.410;2024-03-07T02:31:11;101102.38;;;9.10
70417;BMP280;57839;51.332;12.410;2024-03-07T02:33:37;101090.41;;;9.08
70417;BMP280;57839;51.332;12.410;2024-03-07T02:36:02;101091.97;;;9.09
70417;BMP280;57839;51.332;12.410;2024-03-07T02:38:28;101095.44;;;9.09
70417;BMP280;57839;51.332;12.410;2024-03-07T02:40:53;101091.97;;;9.09
70417;BMP280;57839;51.332;12.410;2024-03-07T02:43:19;101090.41;;;9.08
70417;BMP280;57839;51.332;12.410;2024-03-07T02:45:44;101088.22;;;9.10
70417;BMP280;57839;51.332;12.410;2024-03-07T02:48:10;101085.53;;;9.10
70417;BMP280;57839;51.332;12.410;2024-03-07T02:50:36;101088.53;;;9.08
70417;BMP280;57839;51.332;12.410;2024-03-07T02:53:04;101090.41;;;9.08
70417;BMP280;57839;51.332;12.410;2024-03-07T02:55:30;101087.72;;;9.08
70417;BMP280;57839;51.332;12.410;2024-03-07T02:57:56;101090.41;;;9.08
70417;BMP280;57839;51.332;12.410;2024-03-07T03:00:24;101084.28;;;9.07
70417;BMP280;57839;51.332;12.410;2024-03-07T03:02:52;101096.56;;;9.08
70417;BMP280;57839;51.332;12.410;2024-03-07T03:05:18;101091.19;;;9.08
70417;BMP280;57839;51.332;12.410;2024-03-07T03:07:44;101095.75;;;9.08
70417;BMP280;57839;51.332;12.410;2024-03-07T03:10:18;101085.41;;;9.06
70417;BMP280;57839;51.332;12.410;2024-03-07T03:12:45;101084.59;;;9.06
70417;BMP280;57839;51.332;12.410;2024-03-07T03:15:12;101087.28;;;9.06
70417;BMP280;57839;51.332;12.410;2024-03-07T03:17:37;101083.50;;;9.07
70417;BMP280;57839;51.332;12.410;2024-03-07T03:20:03;101086.63;;;9.09
70417;BMP280;57839;51.332;12.410;2024-03-07T03:22:40;101078.59;;;9.09
70417;BMP280;57839;51.332;12.410;2024-03-07T03:25:05;101082.38;;;9.08
70417;BMP280;57839;51.332;12.410;2024-03-07T03:27:32;101088.41;;;9.05
70417;BMP280;57839;51.332;12.410;2024-03-07T03:29:57;101091.84;;;9.05
70417;BMP280;57839;51.332;12.410;2024-03-07T03:32:25;101084.28;;;9.07
70417;BMP280;57839;51.332;12.410;2024-03-07T03:34:50;101085.41;;;9.06
70417;BMP280;57839;51.332;12.410;2024-03-07T03:37:17;101076.56;;;9.06
70417;BMP280;57839;51.332;12.410;2024-03-07T03:39:43;101084.59;;;9.06
70417;BMP280;57839;51.332;12.410;2024-03-07T03:42:08;101084.28;;;9.07
70417;BMP280;57839;51.332;12.410;2024-03-07T03:44:33;101074.34;;;9.08
70417;BMP280;57839;51.332;12.410;2024-03-07T03:46:59;101083.16;;;9.08
70417;BMP280;57839;51.332;12.410;2024-03-07T03:49:29;101076.28;;;9.07
70417;BMP280;57839;51.332;12.410;2024-03-07T03:51:54;101077.81;;;9.08
70417;BMP280;57839;51.332;12.410;2024-03-07T03:54:19;101074.03;;;9.09
70417;BMP280;57839;51.332;12.410;2024-03-07T03:56:45;101069.13;;;9.11
70417;BMP280;57839;51.332;12.410;2024-03-07T03:59:10;101068.81;;;9.13
70417;BMP280;57839;51.332;12.410;2024-03-07T04:01:36;101074.97;;;9.13
70417;BMP280;57839;51.332;12.410;2024-03-07T04:04:01;101066.94;;;9.13
70417;BMP280;57839;51.332;12.410;2024-03-07T04:06:26;101076.16;;;9.16
70417;BMP280;57839;51.332;12.410;2024-03-07T04:08:52;101074.72;;;9.18
70417;BMP280;57839;51.332;12.410;2024-03-07T04:11:18;101081.31;;;9.21
70417;BMP280;57839;51.332;12.410;2024-03-07T04:13:45;101077.53;;;9.22
70417;BMP280;57839;51.332;12.410;2024-03-07T04:16:10;101075.66;;;9.22
70417;BMP280;57839;51.332;12.410;2024-03-07T04:18:35;101078.31;;;9.22
70417;BMP280;57839;51.332;12.410;2024-03-07T04:21:01;101079.09;;;9.23
70417;BMP280;57839;51.332;12.410;2024-03-07T04:23:27;101067.63;;;9.22
70417;BMP280;57839;51.332;12.410;2024-03-07T04:25:53;101074.72;;;9.18
70417;BMP280;57839;51.332;12.410;2024-03-07T04:28:19;101066.56;;;9.15
70417;BMP280;57839;51.332;12.410;2024-03-07T04:30:44;101076.84;;;9.13
70417;BMP280;57839;51.332;12.410;2024-03-07T04:33:10;101072.16;;;9.10
70417;BMP280;57839;51.332;12.410;2024-03-07T04:35:35;101073.47;;;9.04
70417;BMP280;57839;51.332;12.410;2024-03-07T04:38:01;101080.28;;;9.01
70417;BMP280;57839;51.332;12.410;2024-03-07T04:40:26;101077.13;;;8.99
70417;BMP280;57839;51.332;12.410;2024-03-07T04:42:52;101068.34;;;8.99
70417;BMP280;57839;51.332;12.410;2024-03-07T04:45:17;101071.31;;;8.97
70417;BMP280;57839;51.332;12.410;2024-03-07T04:47:43;101082.03;;;8.97
70417;BMP280;57839;51.332;12.410;2024-03-07T04:50:12;101076.25;;;8.95
70417;BMP280;57839;51.332;12.410;2024-03-07T04:52:38;101077.06;;;8.96
70417;BMP280;57839;51.332;12.410;2024-03-07T04:55:07;101070.91;;;8.95
70417;BMP280;57839;51.332;12.410;2024-03-07T04:57:39;101079.25;;;8.94
70417;BMP280;57839;51.332;12.410;2024-03-07T05:00:09;101079.59;;;8.92
70417;BMP280;57839;51.332;12.410;2024-03-07T05:02:55;101077.69;;;8.93
70417;BMP280;57839;51.332;12.410;2024-03-07T05:05:20;101088.41;;;8.93
70417;BMP280;57839;51.332;12.410;2024-03-07T05:07:51;101084.16;;;8.92
70417;BMP280;57839;51.332;12.410;2024-03-07T05:10:16;101087.94;;;8.91
70417;BMP280;57839;51.332;12.410;2024-03-07T05:12:42;101093.94;;;8.87
70417;BMP280;57839;51.332;12.410;2024-03-07T05:15:07;101084.69;;;8.85
70417;BMP280;57839;51.332;12.410;2024-03-07T05:17:34;101086.91;;;8.83
70417;BMP280;57839;51.332;12.410;2024-03-07T05:20:03;101092.28;;;8.83
70417;BMP280;57839;51.332;12.410;2024-03-07T05:22:34;101102.19;;;8.82
70417;BMP280;57839;51.332;12.410;2024-03-07T05:25:00;101092.91;;;8.80
70417;BMP280;57839;51.332;12.410;2024-03-07T05:27:25;101099.72;;;8.77
70417;BMP280;57839;51.332;12.410;2024-03-07T05:29:53;101092.78;;;8.76
70417;BMP280;57839;51.332;12.410;2024-03-07T05:32:21;101092.34;;;8.74
70417;BMP280;57839;51.332;12.410;2024-03-07T05:34:50;101102.38;;;8.77
70417;BMP280;57839;51.332;12.410;2024-03-07T05:37:16;101103.63;;;8.80
70417;BMP280;57839;51.332;12.410;2024-03-07T05:39:41;101096.38;;;8.80
70417;BMP280;57839;51.332;12.410;2024-03-07T05:42:07;101100.59;;;8.81
70417;BMP280;57839;51.332;12.410;2024-03-07T05:44:32;101107.53;;;8.82
70417;BMP280;57839;51.332;12.410;2024-03-07T05:46:58;101099.16;;;8.84
70417;BMP280;57839;51.332;12.410;2024-03-07T05:49:23;101102.97;;;8.83
70417;BMP280;57839;51.332;12.410;2024-03-07T05:51:49;101107.09;;;8.80
70417;BMP280;57839;51.332;12.410;2024-03-07T05:54:14;101101.59;;;8.77
70417;BMP280;57839;51.332;12.410;2024-03-07T05:56:41;101103.38;;;8.73
70417;BMP280;57839;51.332;12.410;2024-03-07T05:59:06;101111.16;;;8.66
70417;BMP280;57839;51.332;12.410;2024-03-07T06:01:35;101111.16;;;8.66
70417;BMP280;57839;51.332;12.410;2024-03-07T06:04:01;101109.19;;;8.54
70417;BMP280;57839;51.332;12.410;2024-03-07T06:06:27;101118.34;;;8.53
70417;BMP280;57839;51.332;12.410;2024-03-07T06:08:53;101110.97;;;8.50
70417;BMP280;57839;51.332;12.410;2024-03-07T06:11:18;101110.97;;;8.50
70417;BMP280;57839;51.332;12.410;2024-03-07T06:13:47;101121.88;;;8.45
70417;BMP280;57839;51.332;12.410;2024-03-07T06:16:12;101112.28;;;8.44
70417;BMP280;57839;51.332;12.410;2024-03-07T06:18:39;101112.28;;;8.44
70417;BMP280;57839;51.332;12.410;2024-03-07T06:21:05;101119.84;;;8.42
70417;BMP280;57839;51.332;12.410;2024-03-07T06:23:30;101119.84;;;8.42
70417;BMP280;57839;51.332;12.410;2024-03-07T06:25:56;101123.69;;;8.33
70417;BMP280;57839;51.332;12.410;2024-03-07T06:28:23;101123.69;;;8.33
70417;BMP280;57839;51.332;12.410;2024-03-07T06:30:49;101132.41;;;8.21
70417;BMP280;57839;51.332;12.410;2024-03-07T06:33:15;101136.03;;;8.16
70417;BMP280;57839;51.332;12.410;2024-03-07T06:35:41;101126.97;;;8.09
70417;BMP280;57839;51.332;12.410;2024-03-07T06:38:07;101143.06;;;8.00
70417;BMP280;57839;51.332;12.410;2024-03-07T06:40:36;101136.34;;;7.94
70417;BMP280;57839;51.332;12.410;2024-03-07T06:43:01;101147.66;;;7.91
70417;BMP280;57839;51.332;12.410;2024-03-07T06:45:34;101140.28;;;7.88
70417;BMP280;57839;51.332;12.410;2024-03-07T06:48:00;101151.28;;;7.87
70417;BMP280;57839;51.332;12.410;2024-03-07T06:50:26;101150.03;;;7.84
70417;BMP280;57839;51.332;12.410;2024-03-07T06:52:54;101151.91;;;7.84
70417;BMP280;57839;51.332;12.410;2024-03-07T06:55:19;101153.06;;;7.83
70417;BMP280;57839;51.332;12.410;2024-03-07T06:57:45;101149.59;;;7.82
70417;BMP280;57839;51.332;12.410;2024-03-07T07:00:13;101152.56;;;7.81
70417;BMP280;57839;51.332;12.410;2024-03-07T07:02:40;101151.47;;;7.82
70417;BMP280;57839;51.332;12.410;2024-03-07T07:05:06;101151.91;;;7.84
70417;BMP280;57839;51.332;12.410;2024-03-07T07:07:39;101151.28;;;7.87
70417;BMP280;57839;51.332;12.410;2024-03-07T07:10:06;101157.88;;;7.89
70417;BMP280;57839;51.332;12.410;2024-03-07T07:12:35;101158.03;;;7.93
70417;BMP280;57839;51.332;12.410;2024-03-07T07:15:00;101155.81;;;7.95
70417;BMP280;57839;51.332;12.410;2024-03-07T07:17:25;101157.84;;;7.98
70417;BMP280;57839;51.332;12.410;2024-03-07T07:19:54;101160.34;;;8.03
70417;BMP280;57839;51.332;12.410;2024-03-07T07:22:20;101159.69;;;8.06
70417;BMP280;57839;51.332;12.410;2024-03-07T07:24:46;101165.19;;;8.09
70417;BMP280;57839;51.332;12.410;2024-03-07T07:27:11;101167.66;;;8.14
70417;BMP280;57839;51.332;12.410;2024-03-07T07:29:36;101153.63;;;8.18
70417;BMP280;57839;51.332;12.410;2024-03-07T07:32:02;101162.44;;;8.18
70417;BMP280;57839;51.332;12.410;2024-03-07T07:34:27;101157.56;;;8.20
70417;BMP280;57839;51.332;12.410;2024-03-07T07:36:53;101161.63;;;8.26
70417;BMP280;57839;51.332;12.410;2024-03-07T07:39:18;101147.91;;;8.28
70417;BMP280;57839;51.332;12.410;2024-03-07T07:41:43;101158.91;;;8.35
70417;BMP280;57839;51.332;12.410;2024-03-07T07:44:09;101164.97;;;8.44
70417;BMP280;57839;51.332;12.410;2024-03-07T07:46:34;101154.66;;;8.54
70417;BMP280;57839;51.332;12.410;2024-03-07T07:49:00;101155.50;;;8.67
70417;BMP280;57839;51.332;12.410;2024-03-07T07:51:26;101156.34;;;8.79
70417;BMP280;57839;51.332;12.410;2024-03-07T07:53:52;101153.72;;;8.92
70417;BMP280;57839;51.332;12.410;2024-03-07T07:56:19;101153.78;;;9.04
70417;BMP280;57839;51.332;12.410;2024-03-07T07:58:45;101154.00;;;9.11
70417;BMP280;57839;51.332;12.410;2024-03-07T08:01:11;101152.81;;;9.20
70417;BMP280;57839;51.332;12.410;2024-03-07T08:03:36;101151.28;;;9.31
70417;BMP280;57839;51.332;12.410;2024-03-07T08:06:03;101145.38;;;9.38
70417;BMP280;57839;51.332;12.410;2024-03-07T08:08:29;101143.72;;;9.45
70417;BMP280;57839;51.332;12.410;2024-03-07T08:10:54;101137.72;;;9.48
70417;BMP280;57839;51.332;12.410;2024-03-07T08:13:19;101156.13;;;9.50
70417;BMP280;57839;51.332;12.410;2024-03-07T08:15:45;101151.66;;;9.54
70417;BMP280;57839;51.332;12.410;2024-03-07T08:18:10;101146.09;;;9.59
70417;BMP280;57839;51.332;12.410;2024-03-07T08:20:36;101145.75;;;9.60
70417;BMP280;57839;51.332;12.410;2024-03-07T08:23:02;101145.63;;;9.69
70417;BMP280;57839;51.332;12.410;2024-03-07T08:25:28;101156.81;;;9.83
70417;BMP280;57839;51.332;12.410;2024-03-07T08:27:57;101152.66;;;9.86
70417;BMP280;57839;51.332;12.410;2024-03-07T08:30:23;101151.66;;;9.90
70417;BMP280;57839;51.332;12.410;2024-03-07T08:32:50;101151.56;;;9.99
70417;BMP280;57839;51.332;12.410;2024-03-07T08:35:19;101142.72;;;10.10
70417;BMP280;57839;51.332;12.410;2024-03-07T08:37:45;101152.63;;;10.22
70417;BMP280;57839;51.332;12.410;2024-03-07T08:40:11;101144.44;;;10.30
70417;BMP280;57839;51.332;12.410;2024-03-07T08:42:38;101151.47;;;10.35
70417;BMP280;57839;51.332;12.410;2024-03-07T08:45:04;101149.09;;;10.46
70417;BMP280;57839;51.332;12.410;2024-03-07T08:47:30;101148.63;;;10.56
70417;BMP280;57839;51.332;12.410;2024-03-07T08:49:56;101155.09;;;10.67
70417;BMP280;57839;51.332;12.410;2024-03-07T08:52:21;101146.63;;;10.80
70417;BMP280;57839;51.332;12.410;2024-03-07T08:54:47;101154.19;;;10.90
70417;BMP280;57839;51.332;12.410;2024-03-07T08:57:13;101161.19;;;10.95
70417;BMP280;57839;51.332;12.410;2024-03-07T08:59:42;101156.47;;;11.04
70417;BMP280;57839;51.332;12.410;2024-03-07T09:02:07;101161.75;;;11.16
70417;BMP280;57839;51.332;12.410;2024-03-07T09:04:32;101161.88;;;11.35
70417;BMP280;57839;51.332;12.410;2024-03-07T09:06:58;101159.53;;;11.49
70417;BMP280;57839;51.332;12.410;2024-03-07T09:09:24;101154.16;;;11.65
70417;BMP280;57839;51.332;12.410;2024-03-07T09:11:49;101149.97;;;11.83
70417;BMP280;57839;51.332;12.410;2024-03-07T09:14:15;101142.28;;;12.01
70417;BMP280;57839;51.332;12.410;2024-03-07T09:16:40;101147.78;;;12.23
70417;BMP280;57839;51.332;12.410;2024-03-07T09:19:06;101134.28;;;12.42
70417;BMP280;57839;51.332;12.410;2024-03-07T09:21:31;101150.66;;;12.53
70417;BMP280;57839;51.332;12.410;2024-03-07T09:23:56;101141.78;;;12.52
70417;BMP280;57839;51.332;12.410;2024-03-07T09:26:22;101146.19;;;12.60
70417;BMP280;57839;51.332;12.410;2024-03-07T09:28:48;101146.81;;;12.73
70417;BMP280;57839;51.332;12.410;2024-03-07T09:31:16;101147.63;;;12.96
70417;BMP280;57839;51.332;12.410;2024-03-07T09:33:42;101144.81;;;13.12
70417;BMP280;57839;51.332;12.410;2024-03-07T09:36:07;101148.94;;;13.28
70417;BMP280;57839;51.332;12.410;2024-03-07T09:38:33;101144.50;;;13.39
70417;BMP280;57839;51.332;12.410;2024-03-07T09:40:59;101144.34;;;13.55
70417;BMP280;57839;51.332;12.410;2024-03-07T09:43:25;101144.94;;;13.68
70417;BMP280;57839;51.332;12.410;2024-03-07T09:45:52;101138.53;;;13.79
70417;BMP280;57839;51.332;12.410;2024-03-07T09:48:17;101139.88;;;13.92
70417;BMP280;57839;51.332;12.410;2024-03-07T09:50:44;101139.81;;;13.89
70417;BMP280;57839;51.332;12.410;2024-03-07T09:53:11;101139.13;;;13.66
70417;BMP280;57839;51.332;12.410;2024-03-07T09:55:37;101142.34;;;13.52
70417;BMP280;57839;51.332;12.410;2024-03-07T09:58:02;101142.34;;;13.52
70417;BMP280;57839;51.332;12.410;2024-03-07T10:00:31;101147.38;;;13.27
70417;BMP280;57839;51.332;12.410;2024-03-07T10:02:58;101147.38;;;13.27
70417;BMP280;57839;51.332;12.410;2024-03-07T10:05:26;101140.09;;;13.31
70417;BMP280;57839;51.332;12.410;2024-03-07T10:07:51;101140.09;;;13.31
70417;BMP280;57839;51.332;12.410;2024-03-07T10:10:18;101139.44;;;13.38
70417;BMP280;57839;51.332;12.410;2024-03-07T10:12:43;101139.44;;;13.38
70417;BMP280;57839;51.332;12.410;2024-03-07T10:15:08;101145.41;;;13.02
70417;BMP280;57839;51.332;12.410;2024-03-07T10:17:38;101145.41;;;13.02
70417;BMP280;57839;51.332;12.410;2024-03-07T10:20:04;101145.38;;;12.37
70417;BMP280;57839;51.332;12.410;2024-03-07T10:22:29;101145.38;;;12.37
70417;BMP280;57839;51.332;12.410;2024-03-07T10:24:55;101141.66;;;12.26
70417;BMP280;57839;51.332;12.410;2024-03-07T10:27:21;101145.63;;;12.51
70417;BMP280;57839;51.332;12.410;2024-03-07T10:29:47;101149.59;;;12.77
70417;BMP280;57839;51.332;12.410;2024-03-07T10:32:14;101152.41;;;12.84
70417;BMP280;57839;51.332;12.410;2024-03-07T10:34:44;101135.50;;;12.64
70417;BMP280;57839;51.332;12.410;2024-03-07T10:37:12;101143.66;;;12.48
70417;BMP280;57839;51.332;12.410;2024-03-07T10:39:41;101141.72;;;12.49
70417;BMP280;57839;51.332;12.410;2024-03-07T10:42:07;101142.84;;;12.67
70417;BMP280;57839;51.332;12.410;2024-03-07T10:44:37;101140.28;;;13.16
70417;BMP280;57839;51.332;12.410;2024-03-07T10:47:06;101137.34;;;13.77
70417;BMP280;57839;51.332;12.410;2024-03-07T10:49:33;101128.31;;;14.25
70417;BMP280;57839;51.332;12.410;2024-03-07T10:52:16;101136.28;;;14.84
70417;BMP280;57839;51.332;12.410;2024-03-07T10:54:48;101123.69;;;15.02
70417;BMP280;57839;51.332;12.410;2024-03-07T10:57:20;101120.59;;;14.60
70417;BMP280;57839;51.332;12.410;2024-03-07T10:59:57;101118.63;;;14.17
70417;BMP280;57839;51.332;12.410;2024-03-07T11:02:27;101118.78;;;13.72
70417;BMP280;57839;51.332;12.410;2024-03-07T11:07:36;101116.16;;;14.05
70417;BMP280;57839;51.332;12.410;2024-03-07T11:10:01;101116.53;;;13.77
70417;BMP280;57839;51.332;12.410;2024-03-07T11:12:29;101123.41;;;13.45
70417;BMP280;57839;51.332;12.410;2024-03-07T11:14:55;101121.75;;;13.14
70417;BMP280;57839;51.332;12.410;2024-03-07T11:17:21;101110.91;;;13.33
70417;BMP280;57839;51.332;12.410;2024-03-07T11:19:47;101109.78;;;13.90
70417;BMP280;57839;51.332;12.410;2024-03-07T11:22:29;101105.50;;;13.86
70417;BMP280;57839;51.332;12.410;2024-03-07T11:25:01;101106.34;;;13.37
70417;BMP280;57839;51.332;12.410;2024-03-07T11:27:32;101105.63;;;12.92
70417;BMP280;57839;51.332;12.410;2024-03-07T11:30:04;101105.84;;;12.83
70417;BMP280;57839;51.332;12.410;2024-03-07T11:32:33;101108.22;;;13.11
70417;BMP280;57839;51.332;12.410;2024-03-07T11:34:59;101112.19;;;12.94
70417;BMP280;57839;51.332;12.410;2024-03-07T11:37:38;101108.78;;;12.74
70417;BMP280;57839;51.332;12.410;2024-03-07T11:40:58;101111.50;;;12.55
70417;BMP280;57839;51.332;12.410;2024-03-07T11:43:00;101104.41;;;12.28
70417;BMP280;57839;51.332;12.410;2024-03-07T11:45:26;101106.09;;;11.98
70417;BMP280;57839;51.332;12.410;2024-03-07T11:47:52;101101.00;;;11.58
70417;BMP280;57839;51.332;12.410;2024-03-07T11:50:37;101103.03;;;11.30
70417;BMP280;57839;51.332;12.410;2024-03-07T11:53:03;101103.03;;;11.30
70417;BMP280;57839;51.332;12.410;2024-03-07T11:55:35;101100.19;;;10.80
70417;BMP280;57839;51.332;12.410;2024-03-07T11:58:29;101102.88;;;10.64
70417;BMP280;57839;51.332;12.410;2024-03-07T12:00:57;101102.88;;;10.64
70417;BMP280;57839;51.332;12.410;2024-03-07T12:03:23;101110.47;;;10.34
70417;BMP280;57839;51.332;12.410;2024-03-07T12:05:50;101093.19;;;10.20
70417;BMP280;57839;51.332;12.410;2024-03-07T12:08:19;101095.00;;;10.04
70417;BMP280;57839;51.332;12.410;2024-03-07T12:10:47;101099.97;;;10.02
70417;BMP280;57839;51.332;12.410;2024-03-07T12:13:14;101099.97;;;10.02
70417;BMP280;57839;51.332;12.410;2024-03-07T12:15:44;101087.22;;;9.87
70417;BMP280;57839;51.332;12.410;2024-03-07T12:18:10;101100.31;;;9.76
70417;BMP280;57839;51.332;12.410;2024-03-07T12:20:39;101096.50;;;9.65
70417;BMP280;57839;51.332;12.410;2024-03-07T12:23:06;101096.50;;;9.65
70417;BMP280;57839;51.332;12.410;2024-03-07T12:25:36;101094.94;;;9.52
70417;BMP280;57839;51.332;12.410;2024-03-07T12:28:06;101093.63;;;9.46
70417;BMP280;57839;51.332;12.410;2024-03-07T12:30:34;101082.34;;;9.40
70417;BMP280;57839;51.332;12.410;2024-03-07T12:33:01;101082.34;;;9.40
70417;BMP280;57839;51.332;12.410;2024-03-07T12:35:29;101094.59;;;9.29
70417;BMP280;57839;51.332;12.410;2024-03-07T12:37:55;101092.38;;;9.31
70417;BMP280;57839;51.332;12.410;2024-03-07T12:40:21;101085.97;;;9.24
70417;BMP280;57839;51.332;12.410;2024-03-07T12:42:51;101085.09;;;9.20
70417;BMP280;57839;51.332;12.410;2024-03-07T12:45:18;101086.94;;;9.40
70417;BMP280;57839;51.332;12.410;2024-03-07T12:47:45;101092.47;;;9.71
70417;BMP280;57839;51.332;12.410;2024-03-07T12:50:12;101076.63;;;10.02
70417;BMP280;57839;51.332;12.410;2024-03-07T12:52:37;101078.34;;;10.38
70417;BMP280;57839;51.332;12.410;2024-03-07T12:55:02;101075.09;;;10.72
70417;BMP280;57839;51.332;12.410;2024-03-07T12:57:31;101073.69;;;11.06
70417;BMP280;57839;51.332;12.410;2024-03-07T12:59:56;101069.94;;;11.26
70417;BMP280;57839;51.332;12.410;2024-03-07T13:02:22;101073.97;;;11.51
70417;BMP280;57839;51.332;12.410;2024-03-07T13:04:52;101062.56;;;11.73
70417;BMP280;57839;51.332;12.410;2024-03-07T13:07:18;101055.97;;;11.90
70417;BMP280;57839;51.332;12.410;2024-03-07T13:09:43;101055.00;;;11.98
70417;BMP280;57839;51.332;12.410;2024-03-07T13:12:09;101060.44;;;11.82
70417;BMP280;57839;51.332;12.410;2024-03-07T13:14:35;101052.00;;;11.84
70417;BMP280;57839;51.332;12.410;2024-03-07T13:17:01;101060.81;;;12.00
70417;BMP280;57839;51.332;12.410;2024-03-07T13:19:27;101056.56;;;11.99
70417;BMP280;57839;51.332;12.410;2024-03-07T13:21:53;101046.22;;;12.01
70417;BMP280;57839;51.332;12.410;2024-03-07T13:24:19;101046.88;;;12.14
70417;BMP280;57839;51.332;12.410;2024-03-07T13:26:45;101051.19;;;12.18
70417;BMP280;57839;51.332;12.410;2024-03-07T13:29:13;101050.19;;;12.07
70417;BMP280;57839;51.332;12.410;2024-03-07T13:31:39;101049.47;;;11.91
70417;BMP280;57839;51.332;12.410;2024-03-07T13:34:07;101050.53;;;11.67
70417;BMP280;57839;51.332;12.410;2024-03-07T13:36:41;101059.72;;;11.66
70417;BMP280;57839;51.332;12.410;2024-03-07T13:39:07;101040.59;;;11.71
70417;BMP280;57839;51.332;12.410;2024-03-07T13:41:39;101058.53;;;11.83
70417;BMP280;57839;51.332;12.410;2024-03-07T13:44:05;101051.53;;;11.98
70417;BMP280;57839;51.332;12.410;2024-03-07T13:46:31;101053.88;;;12.18
70417;BMP280;57839;51.332;12.410;2024-03-07T13:48:59;101046.16;;;12.36
70417;BMP280;57839;51.332;12.410;2024-03-07T13:51:32;101049.25;;;12.38